Time;durP1;ratioP1;P1;durP2;ratioP2;P2;SDS_P1;SDS_P2;PMS_P1;PMS_P2;Temp;Humidity;BMP_temperature;BMP_pressure;BME280_temperature;BME280_humidity;BME280_pressure;Samples;Min_cycle;Max_cycle;Signal;HPM_P1;HPM_P2
2023/03/05 00:00:32;;;;;;;32.13;17.27;;;;;;;;;;6011936;23;20030;-72
2023/03/05 00:03:03;;;;;;;29.00;16.25;;;;;;;;;;6035656;23;20110;-73
2023/03/05 00:05:33;;;;;;;31.08;17.30;;;;;;;;;;6060791;23;20023;-76
2023/03/05 00:08:00;;;;;;;26.10;13.88;;;;;;;;;;6045444;23;20022;-76
2023/03/05 00:10:29;;;;;;;23.40;16.08;;;;;;;;;;6069119;23;20037;-76
2023/03/05 00:12:59;;;;;;;27.98;19.27;;;;;;;;;;6070095;23;20481;-75
2023/03/05 00:15:29;;;;;;;23.45;16.20;;;;;;;;;;6092677;23;20493;-76
2023/03/05 00:17:56;;;;;;;29.23;19.17;;;;;;;;;;6125727;23;20010;-75
2023/03/05 00:20:27;;;;;;;30.70;19.52;;;;;;;;;;6097181;23;20025;-75
2023/03/05 00:22:54;;;;;;;26.77;16.08;;;;;;;;;;6123562;23;20028;-76
2023/03/05 00:25:21;;;;;;;24.98;16.17;;;;;;;;;;6122222;23;20041;-76
2023/03/05 00:27:51;;;;;;;20.13;12.80;;;;;;;;;;6123719;23;20486;-76
2023/03/05 00:30:20;;;;;;;24.55;15.80;;;;;;;;;;6097469;23;20110;-76
2023/03/05 00:32:50;;;;;;;29.45;17.02;;;;;;;;;;6072888;23;20018;-75
2023/03/05 00:35:17;;;;;;;25.65;19.33;;;;;;;;;;6074829;23;20029;-75
2023/03/05 00:37:46;;;;;;;23.95;15.65;;;;;;;;;;6099635;23;20033;-75
2023/03/05 00:40:14;;;;;;;26.50;18.42;;;;;;;;;;6097693;23;20014;-75
2023/03/05 00:42:41;;;;;;;32.22;17.25;;;;;;;;;;6074007;23;20344;-76
2023/03/05 00:45:10;;;;;;;25.45;16.58;;;;;;;;;;6127722;23;20033;-76
2023/03/05 00:47:39;;;;;;;28.08;16.55;;;;;;;;;;6098803;23;20021;-75
2023/03/05 00:50:10;;;;;;;30.80;19.92;;;;;;;;;;6072303;23;20029;-75
2023/03/05 00:52:40;;;;;;;24.42;15.93;;;;;;;;;;6074737;23;20033;-75
2023/03/05 00:55:11;;;;;;;34.15;17.77;;;;;;;;;;6097996;23;20021;-76
2023/03/05 00:57:38;;;;;;;31.90;18.80;;;;;;;;;;6107737;23;20014;-75
2023/03/05 01:00:07;;;;;;;31.52;17.52;;;;;;;;;;6096213;23;20040;-75
2023/03/05 01:02:37;;;;;;;24.55;18.00;;;;;;;;;;6130465;23;20016;-76
2023/03/05 01:05:07;;;;;;;33.92;19.23;;;;;;;;;;6098145;23;20473;-76
2023/03/05 01:07:34;;;;;;;29.30;18.50;;;;;;;;;;6072917;23;20025;-76
2023/03/05 01:10:06;;;;;;;26.92;16.50;;;;;;;;;;6098540;23;20029;-76
2023/03/05 01:12:37;;;;;;;30.35;18.08;;;;;;;;;;6096176;23;20025;-76
2023/03/05 01:15:06;;;;;;;26.92;17.52;;;;;;;;;;6097382;23;20458;-76
2023/03/05 01:17:36;;;;;;;28.33;19.10;;;;;;;;;;6075467;23;20021;-75
2023/03/05 01:20:07;;;;;;;38.22;20.95;;;;;;;;;;6121874;23;20028;-75
2023/03/05 01:22:36;;;;;;;33.60;17.88;;;;;;;;;;6094964;23;20025;-75
2023/03/05 01:25:07;;;;;;;34.33;17.38;;;;;;;;;;6123089;23;20070;-76
2023/03/05 01:27:34;;;;;;;28.92;17.70;;;;;;;;;;6073515;23;20473;-75
2023/03/05 01:30:10;;;;;;;27.40;16.55;;;;;;;;;;6123512;23;20029;-75
2023/03/05 01:32:39;;;;;;;33.45;18.80;;;;;;;;;;6106360;23;20014;-75
2023/03/05 01:35:10;;;;;;;25.08;16.52;;;;;;;;;;6073453;23;20022;-75
2023/03/05 01:37:40;;;;;;;27.30;16.13;;;;;;;;;;6106470;23;20013;-75
2023/03/05 01:40:11;;;;;;;25.35;18.90;;;;;;;;;;6132153;23;20014;-75
2023/03/05 01:42:39;;;;;;;34.28;19.48;;;;;;;;;;6107052;23;20025;-75
2023/03/05 01:45:10;;;;;;;26.83;20.95;;;;;;;;;;6097753;23;20324;-75
2023/03/05 01:47:38;;;;;;;25.85;15.05;;;;;;;;;;6132561;23;20014;-76
2023/03/05 01:50:08;;;;;;;26.65;17.17;;;;;;;;;;6073637;23;20482;-75
2023/03/05 01:52:41;;;;;;;23.20;17.25;;;;;;;;;;6096773;23;20033;-76
2023/03/05 01:55:13;;;;;;;36.92;17.70;;;;;;;;;;6097252;23;20477;-76
2023/03/05 01:57:44;;;;;;;24.17;18.10;;;;;;;;;;6097657;23;20022;-75
2023/03/05 02:00:16;;;;;;;26.05;18.38;;;;;;;;;;6074031;23;20018;-75
2023/03/05 02:02:44;;;;;;;27.60;17.50;;;;;;;;;;6073426;23;20026;-75
2023/03/05 02:05:16;;;;;;;29.70;17.75;;;;;;;;;;6096803;23;20036;-75
2023/03/05 02:07:44;;;;;;;33.42;19.75;;;;;;;;;;6131701;23;20021;-75
2023/03/05 02:10:16;;;;;;;34.15;17.85;;;;;;;;;;6122244;23;20024;-76
2023/03/05 02:12:43;;;;;;;28.50;16.85;;;;;;;;;;6072973;23;20493;-76
2023/03/05 02:15:13;;;;;;;28.98;18.35;;;;;;;;;;6096856;23;20018;-75
2023/03/05 02:17:40;;;;;;;23.95;16.50;;;;;;;;;;6095914;23;20025;-75
2023/03/05 02:20:10;;;;;;;30.05;17.40;;;;;;;;;;6073611;23;20020;-75
2023/03/05 02:22:41;;;;;;;29.05;16.65;;;;;;;;;;6072586;23;20024;-75
2023/03/05 02:25:14;;;;;;;32.55;17.80;;;;;;;;;;6120496;23;20010;-75
2023/03/05 02:27:49;;;;;;;34.33;17.85;;;;;;;;;;6072995;23;20026;-76
2023/03/05 02:30:21;;;;;;;29.48;18.05;;;;;;;;;;6097311;23;20025;-76
2023/03/05 02:32:49;;;;;;;29.67;19.48;;;;;;;;;;6072310;23;20022;-76
2023/03/05 02:35:19;;;;;;;25.83;17.40;;;;;;;;;;6070810;23;20021;-76
2023/03/05 02:37:48;;;;;;;29.15;17.63;;;;;;;;;;6096881;23;20121;-75
2023/03/05 02:40:15;;;;;;;31.70;15.98;;;;;;;;;;6095571;23;20021;-75
2023/03/05 02:42:43;;;;;;;29.85;18.65;;;;;;;;;;6095980;23;20014;-75
2023/03/05 02:45:16;;;;;;;31.30;18.23;;;;;;;;;;6097014;23;20045;-75
2023/03/05 02:47:43;;;;;;;27.45;16.02;;;;;;;;;;6071684;23;20022;-75
2023/03/05 02:50:13;;;;;;;33.28;17.05;;;;;;;;;;6096184;23;20493;-75
2023/03/05 02:52:40;;;;;;;23.85;16.30;;;;;;;;;;6131191;23;20087;-75
2023/03/05 02:55:15;;;;;;;27.67;13.95;;;;;;;;;;6099716;23;20020;-75
2023/03/05 02:57:45;;;;;;;32.22;18.05;;;;;;;;;;6104033;23;20040;-75
2023/03/05 03:00:13;;;;;;;27.30;15.30;;;;;;;;;;6096548;23;20021;-75
2023/03/05 03:02:40;;;;;;;27.65;18.13;;;;;;;;;;6095343;23;20025;-75
2023/03/05 03:05:08;;;;;;;31.38;17.33;;;;;;;;;;6072571;23;20022;-75
2023/03/05 03:07:38;;;;;;;24.13;16.95;;;;;;;;;;6096340;23;20033;-76
2023/03/05 03:10:09;;;;;;;29.23;18.15;;;;;;;;;;6097102;23;20026;-75
2023/03/05 03:12:38;;;;;;;29.88;17.95;;;;;;;;;;6121554;23;20022;-75
2023/03/05 03:15:06;;;;;;;30.63;16.23;;;;;;;;;;6098579;23;20485;-75
2023/03/05 03:17:37;;;;;;;25.77;18.83;;;;;;;;;;6107480;23;20021;-76
2023/03/05 03:20:08;;;;;;;27.92;18.35;;;;;;;;;;6097566;23;20350;-75
2023/03/05 03:22:38;;;;;;;31.63;18.02;;;;;;;;;;6121821;23;20024;-75
2023/03/05 03:25:06;;;;;;;28.55;16.60;;;;;;;;;;6096730;23;20022;-75
2023/03/05 03:27:35;;;;;;;31.77;18.55;;;;;;;;;;6132292;23;20014;-75
2023/03/05 03:30:05;;;;;;;24.83;16.92;;;;;;;;;;6132130;23;20018;-75
2023/03/05 03:32:32;;;;;;;27.38;17.73;;;;;;;;;;6132789;23;20018;-75
2023/03/05 03:35:06;;;;;;;24.80;15.70;;;;;;;;;;6095173;23;20025;-75
2023/03/05 03:37:33;;;;;;;31.30;17.50;;;;;;;;;;6107306;23;20025;-75
2023/03/05 03:40:04;;;;;;;32.63;18.52;;;;;;;;;;6095843;23;20025;-75
2023/03/05 03:42:33;;;;;;;36.78;15.93;;;;;;;;;;6131845;23;20342;-76
2023/03/05 03:45:01;;;;;;;31.70;18.65;;;;;;;;;;6122172;23;20018;-75
2023/03/05 03:47:29;;;;;;;31.67;15.52;;;;;;;;;;6122932;23;20343;-76
2023/03/05 03:49:57;;;;;;;27.98;17.05;;;;;;;;;;6107095;23;20485;-75
2023/03/05 03:52:29;;;;;;;29.37;16.33;;;;;;;;;;6096566;23;20029;-76
2023/03/05 03:55:02;;;;;;;27.38;18.27;;;;;;;;;;6124392;23;20470;-75
2023/03/05 03:57:30;;;;;;;26.10;17.17;;;;;;;;;;6072427;23;20026;-76
2023/03/05 03:59:57;;;;;;;33.05;18.17;;;;;;;;;;6097375;23;20595;-75
2023/03/05 04:02:24;;;;;;;26.70;14.93;;;;;;;;;;6131924;23;20014;-76
2023/03/05 04:04:57;;;;;;;31.83;15.82;;;;;;;;;;6124663;23;20018;-75
2023/03/05 04:07:27;;;;;;;29.38;17.23;;;;;;;;;;6103803;23;20018;-75
2023/03/05 04:09:59;;;;;;;31.23;16.67;;;;;;;;;;6096611;23;20014;-75
2023/03/05 04:12:31;;;;;;;25.52;18.23;;;;;;;;;;6131718;23;20014;-76
2023/03/05 04:15:00;;;;;;;31.88;16.83;;;;;;;;;;6100968;23;20013;-76
2023/03/05 04:17:27;;;;;;;21.55;16.20;;;;;;;;;;6098064;23;20014;-75
2023/03/05 04:19:59;;;;;;;27.08;16.02;;;;;;;;;;6123469;23;20029;-75
2023/03/05 04:22:31;;;;;;;28.48;15.60;;;;;;;;;;6098401;23;20025;-76
2023/03/05 04:25:02;;;;;;;22.88;18.38;;;;;;;;;;6097306;23;20028;-75
2023/03/05 04:27:32;;;;;;;28.52;15.65;;;;;;;;;;6132633;23;20021;-75
2023/03/05 04:29:59;;;;;;;27.67;14.68;;;;;;;;;;6097192;23;20343;-75
2023/03/05 04:32:29;;;;;;;34.75;16.20;;;;;;;;;;6099222;23;20025;-75
2023/03/05 04:34:56;;;;;;;31.98;19.70;;;;;;;;;;6121720;23;20032;-75
2023/03/05 04:37:26;;;;;;;34.22;17.92;;;;;;;;;;6124350;23;20017;-75
2023/03/05 04:39:55;;;;;;;20.85;14.93;;;;;;;;;;6073272;23;20029;-75
2023/03/05 04:42:22;;;;;;;23.50;17.17;;;;;;;;;;6098928;23;20014;-75
2023/03/05 04:44:50;;;;;;;32.25;16.20;;;;;;;;;;6097905;23;20025;-75
2023/03/05 04:47:17;;;;;;;21.15;15.65;;;;;;;;;;6073910;23;20029;-75
2023/03/05 04:49:44;;;;;;;23.58;16.42;;;;;;;;;;6122876;23;20035;-76
2023/03/05 04:52:12;;;;;;;22.95;17.40;;;;;;;;;;6074205;23;20018;-75
2023/03/05 04:54:41;;;;;;;21.77;14.40;;;;;;;;;;6074082;23;20026;-75
2023/03/05 04:57:08;;;;;;;30.17;16.75;;;;;;;;;;6098955;23;20021;-75
2023/03/05 04:59:38;;;;;;;28.30;18.77;;;;;;;;;;6073477;23;20022;-75
2023/03/05 05:02:05;;;;;;;30.10;16.92;;;;;;;;;;6097347;23;20044;-75
2023/03/05 05:04:34;;;;;;;26.13;15.40;;;;;;;;;;6123381;23;20017;-75
2023/03/05 05:07:02;;;;;;;22.88;15.68;;;;;;;;;;6124680;23;20014;-75
2023/03/05 05:09:31;;;;;;;23.58;14.75;;;;;;;;;;6096658;23;20021;-75
2023/03/05 05:11:59;;;;;;;24.05;16.52;;;;;;;;;;6121409;23;20032;-75
2023/03/05 05:14:29;;;;;;;23.90;15.57;;;;;;;;;;6128986;23;20020;-75
2023/03/05 05:16:59;;;;;;;27.30;13.80;;;;;;;;;;6109842;23;20347;-75
2023/03/05 05:19:26;;;;;;;23.90;16.30;;;;;;;;;;6096398;23;20018;-75
2023/03/05 05:21:53;;;;;;;24.17;16.75;;;;;;;;;;6107854;23;20014;-75
2023/03/05 05:24:23;;;;;;;26.13;16.20;;;;;;;;;;6123077;23;20025;-75
2023/03/05 05:26:54;;;;;;;25.33;15.70;;;;;;;;;;6099039;23;20079;-75
2023/03/05 05:29:27;;;;;;;30.67;17.10;;;;;;;;;;6097163;23;20037;-75
2023/03/05 05:31:55;;;;;;;21.55;14.80;;;;;;;;;;6123476;23;20021;-75
2023/03/05 05:34:23;;;;;;;29.50;18.60;;;;;;;;;;6121288;23;20462;-75
2023/03/05 05:36:51;;;;;;;23.63;14.38;;;;;;;;;;6074231;23;20018;-75
2023/03/05 05:39:21;;;;;;;23.25;15.18;;;;;;;;;;6123238;23;20040;-75
2023/03/05 05:41:51;;;;;;;27.25;17.02;;;;;;;;;;6097102;23;20025;-75
2023/03/05 05:44:18;;;;;;;24.60;17.55;;;;;;;;;;6122631;23;20346;-75
2023/03/05 05:46:49;;;;;;;22.75;15.52;;;;;;;;;;6098518;23;20038;-75
2023/03/05 05:49:21;;;;;;;29.15;16.50;;;;;;;;;;6097701;23;20029;-75
2023/03/05 05:51:51;;;;;;;21.15;14.27;;;;;;;;;;6071467;23;20025;-75
2023/03/05 05:54:18;;;;;;;32.65;17.70;;;;;;;;;;6072822;23;20024;-75
2023/03/05 05:56:47;;;;;;;31.65;18.90;;;;;;;;;;6123453;23;20055;-75
2023/03/05 05:59:14;;;;;;;25.02;16.58;;;;;;;;;;6123312;23;20014;-75
2023/03/05 06:01:42;;;;;;;23.00;16.05;;;;;;;;;;6122301;23;20021;-75
2023/03/05 06:04:10;;;;;;;22.38;14.65;;;;;;;;;;6069738;23;20018;-72
2023/03/05 06:06:38;;;;;;;23.25;14.00;;;;;;;;;;6075330;23;20015;-71
2023/03/05 06:09:05;;;;;;;24.70;16.92;;;;;;;;;;6039336;23;20015;-72
2023/03/05 06:11:32;;;;;;;25.83;17.73;;;;;;;;;;6049630;23;20015;-72
2023/03/05 06:14:02;;;;;;;28.13;16.60;;;;;;;;;;6013398;23;20363;-72
2023/03/05 06:16:29;;;;;;;22.77;16.75;;;;;;;;;;6065864;23;20022;-72
2023/03/05 06:18:57;;;;;;;21.33;16.23;;;;;;;;;;6049653;23;20467;-72
2023/03/05 06:21:26;;;;;;;37.75;16.95;;;;;;;;;;6039821;23;20022;-72
2023/03/05 06:23:53;;;;;;;30.38;19.00;;;;;;;;;;6071829;23;20018;-71
2023/03/05 06:26:22;;;;;;;23.95;15.23;;;;;;;;;;6073285;23;20022;-72
2023/03/05 06:28:49;;;;;;;22.33;14.55;;;;;;;;;;6039964;23;20025;-72
2023/03/05 06:31:21;;;;;;;27.92;16.60;;;;;;;;;;6040016;23;20042;-72
2023/03/05 06:33:49;;;;;;;24.83;14.15;;;;;;;;;;6072249;23;20459;-71
2023/03/05 06:36:20;;;;;;;26.70;16.20;;;;;;;;;;6066086;23;20386;-72
2023/03/05 06:38:49;;;;;;;26.13;17.15;;;;;;;;;;6064400;23;20025;-71
2023/03/05 06:41:18;;;;;;;24.38;16.25;;;;;;;;;;6064432;23;20344;-71
2023/03/05 06:43:50;;;;;;;25.38;15.73;;;;;;;;;;6073552;23;20355;-72
2023/03/05 06:46:20;;;;;;;21.67;15.85;;;;;;;;;;6039798;23;20022;-72
2023/03/05 06:48:50;;;;;;;28.02;17.55;;;;;;;;;;6039044;23;20026;-72
2023/03/05 06:51:19;;;;;;;35.03;19.30;;;;;;;;;;6064894;23;20471;-72
2023/03/05 06:53:47;;;;;;;30.23;16.88;;;;;;;;;;6038311;23;20658;-71
2023/03/05 06:56:18;;;;;;;30.23;19.75;;;;;;;;;;6014841;23;20046;-71
2023/03/05 06:58:47;;;;;;;38.72;20.60;;;;;;;;;;6062550;23;20592;-72
2023/03/05 07:01:16;;;;;;;30.08;19.80;;;;;;;;;;6039555;23;20030;-72
2023/03/05 07:03:49;;;;;;;28.92;18.95;;;;;;;;;;6039379;23;20038;-71
2023/03/05 07:06:16;;;;;;;33.78;23.10;;;;;;;;;;6064176;23;20014;-72
2023/03/05 07:08:46;;;;;;;35.00;19.25;;;;;;;;;;6038033;23;20031;-71
2023/03/05 07:11:18;;;;;;;31.50;18.85;;;;;;;;;;6016030;23;20018;-72
2023/03/05 07:13:46;;;;;;;36.92;18.77;;;;;;;;;;6073890;23;20019;-71
2023/03/05 07:16:15;;;;;;;33.42;19.70;;;;;;;;;;6063056;23;20022;-71
2023/03/05 07:18:42;;;;;;;36.63;19.45;;;;;;;;;;6035451;23;20384;-72
2023/03/05 07:21:15;;;;;;;37.97;20.42;;;;;;;;;;6069957;23;20018;-71
2023/03/05 07:23:48;;;;;;;33.95;21.38;;;;;;;;;;6063326;23;20026;-72
2023/03/05 07:26:21;;;;;;;38.72;20.65;;;;;;;;;;6064113;23;20041;-72
2023/03/05 07:28:51;;;;;;;30.83;19.23;;;;;;;;;;6061472;23;20022;-72
2023/03/05 07:31:25;;;;;;;31.63;21.48;;;;;;;;;;6038538;23;20023;-72
2023/03/05 07:33:55;;;;;;;37.35;22.23;;;;;;;;;;6072503;23;20356;-72
2023/03/05 07:36:22;;;;;;;31.88;22.52;;;;;;;;;;6039194;23;20023;-72
2023/03/05 07:38:49;;;;;;;34.10;18.75;;;;;;;;;;6061563;23;20022;-72
2023/03/05 07:41:22;;;;;;;31.75;18.77;;;;;;;;;;6064723;23;20347;-72
2023/03/05 07:43:50;;;;;;;34.35;21.70;;;;;;;;;;6071841;23;20355;-72
2023/03/05 07:46:19;;;;;;;29.15;19.30;;;;;;;;;;6038490;23;20027;-72
2023/03/05 07:48:46;;;;;;;39.35;23.20;;;;;;;;;;6062616;23;20014;-72
2023/03/05 07:51:19;;;;;;;32.15;20.73;;;;;;;;;;6041831;23;20026;-72
2023/03/05 07:53:47;;;;;;;37.47;18.30;;;;;;;;;;6065735;23;20018;-72
2023/03/05 07:56:22;;;;;;;26.63;19.05;;;;;;;;;;6065720;23;20022;-72
2023/03/05 07:58:50;;;;;;;34.72;19.02;;;;;;;;;;6072814;23;20018;-72
2023/03/05 08:01:19;;;;;;;28.48;20.02;;;;;;;;;;6065117;23;20030;-72
2023/03/05 08:03:46;;;;;;;32.00;20.92;;;;;;;;;;6039417;23;20054;-72
2023/03/05 08:06:16;;;;;;;28.92;19.92;;;;;;;;;;6062724;23;20026;-75
2023/03/05 08:08:43;;;;;;;36.78;21.52;;;;;;;;;;6064367;23;20015;-73
2023/03/05 08:11:14;;;;;;;31.35;19.60;;;;;;;;;;6073150;23;20414;-71
2023/03/05 08:13:44;;;;;;;34.17;19.25;;;;;;;;;;6064095;23;20019;-71
2023/03/05 08:16:13;;;;;;;29.85;19.42;;;;;;;;;;6041796;23;20022;-71
2023/03/05 08:18:41;;;;;;;33.15;18.85;;;;;;;;;;6066637;23;20021;-71
2023/03/05 08:21:15;;;;;;;27.95;17.67;;;;;;;;;;6067748;23;20017;-72
2023/03/05 08:23:43;;;;;;;30.60;17.50;;;;;;;;;;6074291;23;20022;-72
2023/03/05 08:26:12;;;;;;;28.75;18.95;;;;;;;;;;6041679;23;20023;-72
2023/03/05 08:28:43;;;;;;;30.35;20.08;;;;;;;;;;6016054;23;20034;-71
2023/03/05 08:31:11;;;;;;;32.80;18.98;;;;;;;;;;6063347;23;20018;-74
2023/03/05 08:33:39;;;;;;;36.30;21.55;;;;;;;;;;6063100;23;20056;-72
2023/03/05 08:36:08;;;;;;;28.13;18.67;;;;;;;;;;6042360;23;20026;-71
2023/03/05 08:38:35;;;;;;;27.35;17.45;;;;;;;;;;6040088;23;20019;-72
2023/03/05 08:41:03;;;;;;;27.90;16.77;;;;;;;;;;6066563;23;20019;-72
2023/03/05 08:43:33;;;;;;;28.48;17.67;;;;;;;;;;6040484;23;20023;-71
2023/03/05 08:46:02;;;;;;;25.10;17.17;;;;;;;;;;6068347;23;20019;-72
2023/03/05 08:48:32;;;;;;;28.65;19.05;;;;;;;;;;6074258;23;20026;-72
2023/03/05 08:51:05;;;;;;;25.92;15.30;;;;;;;;;;6074015;23;20026;-71
2023/03/05 08:53:37;;;;;;;23.67;17.35;;;;;;;;;;6058433;23;20340;-71
2023/03/05 08:56:04;;;;;;;25.10;17.83;;;;;;;;;;6040849;23;20018;-72
2023/03/05 08:58:32;;;;;;;26.58;16.70;;;;;;;;;;6040815;23;20029;-72
2023/03/05 09:00:59;;;;;;;22.15;18.08;;;;;;;;;;6065592;23;20076;-71
2023/03/05 09:03:31;;;;;;;26.52;17.45;;;;;;;;;;6060737;23;20030;-71
2023/03/05 09:06:01;;;;;;;23.08;16.20;;;;;;;;;;6067655;23;20022;-71
2023/03/05 09:08:31;;;;;;;25.05;16.52;;;;;;;;;;6039773;23;20015;-71
2023/03/05 09:10:58;;;;;;;24.60;15.95;;;;;;;;;;6064070;23;20030;-72
2023/03/05 09:13:26;;;;;;;24.83;17.20;;;;;;;;;;6064493;23;20015;-72
2023/03/05 09:15:56;;;;;;;21.52;15.63;;;;;;;;;;6064741;23;20026;-71
2023/03/05 09:18:23;;;;;;;20.98;15.52;;;;;;;;;;6064666;23;20015;-72
2023/03/05 09:20:57;;;;;;;24.42;15.95;;;;;;;;;;6070701;23;20033;-72
2023/03/05 09:23:24;;;;;;;24.55;15.73;;;;;;;;;;6041226;23;20367;-72
2023/03/05 09:25:54;;;;;;;20.80;14.13;;;;;;;;;;6064329;23;20026;-72
2023/03/05 09:28:22;;;;;;;19.55;14.32;;;;;;;;;;6041362;23;20026;-72
2023/03/05 09:30:49;;;;;;;18.20;12.95;;;;;;;;;;6062107;23;20042;-82
2023/03/05 09:33:18;;;;;;;23.23;14.35;;;;;;;;;;6047531;23;20448;-82
2023/03/05 09:35:48;;;;;;;23.27;15.70;;;;;;;;;;6060972;23;20019;-82
2023/03/05 09:38:18;;;;;;;25.42;16.15;;;;;;;;;;6040279;23;20015;-82
2023/03/05 09:40:52;;;;;;;20.00;14.43;;;;;;;;;;6074066;23;20382;-82
2023/03/05 09:43:28;;;;;;;22.98;15.70;;;;;;;;;;6040315;23;20031;-82
2023/03/05 09:46:05;;;;;;;18.88;13.85;;;;;;;;;;6069294;23;20358;-88
2023/03/05 09:48:44;;;;;;;22.08;13.80;;;;;;;;;;6063953;23;20026;-88
2023/03/05 09:51:14;;;;;;;20.98;13.30;;;;;;;;;;6041859;23;20015;-87
2023/03/05 09:53:47;;;;;;;21.25;13.10;;;;;;;;;;6067113;23;20018;-87
2023/03/05 09:56:16;;;;;;;20.98;12.85;;;;;;;;;;6042015;23;20023;-87
2023/03/05 09:58:47;;;;;;;18.20;10.20;;;;;;;;;;6042111;23;20620;-88
2023/03/05 10:01:19;;;;;;;14.57;9.32;;;;;;;;;;6065354;23;20363;-87
2023/03/05 10:03:53;;;;;;;14.45;8.80;;;;;;;;;;6064587;23;20025;-87
2023/03/05 10:06:24;;;;;;;11.68;7.82;;;;;;;;;;6041748;23;20030;-87
2023/03/05 10:08:57;;;;;;;10.13;6.13;;;;;;;;;;6042053;23;20027;-86
2023/03/05 10:11:43;;;;;;;10.02;6.50;;;;;;;;;;6064890;23;20042;-86
2023/03/05 10:14:15;;;;;;;11.38;7.47;;;;;;;;;;6038419;23;20033;-86
2023/03/05 10:17:15;;;;;;;10.95;6.53;;;;;;;;;;6041198;23;20015;-87
2023/03/05 10:20:00;;;;;;;13.93;7.25;;;;;;;;;;6026856;23;20022;-87
2023/03/05 10:22:29;;;;;;;9.75;7.47;;;;;;;;;;6040727;23;20015;-87
2023/03/05 10:25:10;;;;;;;10.70;7.65;;;;;;;;;;6040489;23;20743;-89
2023/03/05 10:27:44;;;;;;;13.52;8.13;;;;;;;;;;6042291;23;20019;-88
2023/03/05 10:30:45;;;;;;;9.45;6.38;;;;;;;;;;6041010;23;20026;-87
2023/03/05 10:33:17;;;;;;;11.48;6.90;;;;;;;;;;6063196;23;20362;-89
2023/03/05 10:36:16;;;;;;;8.85;6.72;;;;;;;;;;6039695;23;20015;-87
2023/03/05 10:39:00;;;;;;;9.75;6.38;;;;;;;;;;6039857;23;20015;-87
2023/03/05 10:41:36;;;;;;;9.07;5.90;;;;;;;;;;6080204;23;20015;-88
2023/03/05 10:44:16;;;;;;;10.50;7.10;;;;;;;;;;6040504;23;20023;-88
2023/03/05 10:46:50;;;;;;;8.90;5.88;;;;;;;;;;6067781;23;20030;-88
2023/03/05 10:49:20;;;;;;;8.27;6.18;;;;;;;;;;6074970;23;20530;-87
2023/03/05 10:52:07;;;;;;;11.33;6.10;;;;;;;;;;6042954;23;20027;-88
2023/03/05 10:54:41;;;;;;;10.63;6.95;;;;;;;;;;6065964;23;20022;-87
2023/03/05 10:57:17;;;;;;;6.45;5.13;;;;;;;;;;6065101;23;20042;-87
2023/03/05 10:59:48;;;;;;;10.52;6.18;;;;;;;;;;6065797;23;20015;-87
2023/03/05 11:02:15;;;;;;;13.70;8.50;;;;;;;;;;6074933;23;20018;-87
2023/03/05 11:04:46;;;;;;;14.40;6.97;;;;;;;;;;6042296;23;20019;-88
2023/03/05 11:07:32;;;;;;;8.90;5.05;;;;;;;;;;6066385;23;20339;-87
2023/03/05 11:10:16;;;;;;;11.30;7.22;;;;;;;;;;6067177;23;20019;-89
2023/03/05 11:13:18;;;;;;;9.75;7.25;;;;;;;;;;6065897;23;20019;-89
2023/03/05 11:15:59;;;;;;;11.88;6.18;;;;;;;;;;6066922;23;20029;-88
2023/03/05 11:18:30;;;;;;;8.80;6.28;;;;;;;;;;6063825;23;20781;-86
2023/03/05 11:21:08;;;;;;;9.70;5.20;;;;;;;;;;6044518;23;20029;-88
2023/03/05 11:23:36;;;;;;;9.02;6.82;;;;;;;;;;6041306;23;20015;-86
2023/03/05 11:26:19;;;;;;;12.32;6.97;;;;;;;;;;6043086;23;20362;-88
2023/03/05 11:29:00;;;;;;;8.30;6.03;;;;;;;;;;6041384;23;20018;-87
2023/03/05 11:31:29;;;;;;;12.30;6.93;;;;;;;;;;6041161;23;20019;-87
2023/03/05 11:33:59;;;;;;;13.27;7.68;;;;;;;;;;6040370;23;20026;-86
2023/03/05 11:36:29;;;;;;;7.63;5.38;;;;;;;;;;6066891;23;20331;-87
2023/03/05 11:38:59;;;;;;;7.78;5.47;;;;;;;;;;6076594;23;20041;-88
2023/03/05 11:41:31;;;;;;;12.40;7.85;;;;;;;;;;6066353;23;20019;-87
2023/03/05 11:44:04;;;;;;;8.50;6.43;;;;;;;;;;6072864;23;20011;-87
2023/03/05 11:46:40;;;;;;;9.43;7.57;;;;;;;;;;6064972;23;20027;-86
2023/03/05 11:49:13;;;;;;;11.20;6.60;;;;;;;;;;6042994;23;20034;-88
2023/03/05 11:51:43;;;;;;;12.50;8.23;;;;;;;;;;6043487;23;20014;-89
2023/03/05 11:54:16;;;;;;;9.68;7.65;;;;;;;;;;6064251;23;20026;-86
2023/03/05 11:56:44;;;;;;;9.25;6.88;;;;;;;;;;6076205;23;20025;-89
2023/03/05 11:59:18;;;;;;;9.77;6.63;;;;;;;;;;6044156;23;20030;-88
2023/03/05 12:01:48;;;;;;;12.43;7.03;;;;;;;;;;6069608;23;20027;-86
2023/03/05 12:04:17;;;;;;;14.60;7.53;;;;;;;;;;6077036;23;20365;-89
2023/03/05 12:13:23;;;;;;;12.45;8.05;;;;;;;;;;6095373;23;20007;-92
2023/03/05 12:19:30;;;;;;;;;;;;;;;;;;;;;
2023/03/05 12:22:15;;;;;;;11.00;5.93;;;;;;;;;;5063549;28;20064;-87
2023/03/05 12:25:32;;;;;;;7.63;5.63;;;;;;;;;;5069950;28;20061;-87
2023/03/05 12:28:04;;;;;;;8.90;6.35;;;;;;;;;;5067419;28;20287;-87
2023/03/05 12:31:02;;;;;;;12.00;6.13;;;;;;;;;;5044570;28;20510;-87
2023/03/05 12:33:45;;;;;;;8.88;5.18;;;;;;;;;;5063531;28;20048;-87
2023/03/05 12:36:41;;;;;;;11.23;5.65;;;;;;;;;;5060931;28;20052;-87
2023/03/05 12:39:48;;;;;;;10.15;5.63;;;;;;;;;;5059978;28;21822;-87
2023/03/05 13:04:20;;;;;;;7.32;5.20;;;;;;;;;;6215483;22;20290;-86
2023/03/05 13:07:14;;;;;;;;;;;;;;;;;;;;;
2023/03/05 13:09:58;;;;;;;;;;;;;;;;;;5000874;28;20050;-87
2023/03/05 13:12:32;;;;;;;6.97;5.75;;;;;;;;;;4993681;28;19921;-87
2023/03/05 18:29:35;;;;;;;8.10;6.70;;;;;;;;;;5912092;22;20056;-84
2023/03/05 18:32:06;;;;;;;10.65;7.25;;;;;;;;;;5024701;28;20057;-83
2023/03/05 18:34:33;;;;;;;13.07;7.97;;;;;;;;;;5029993;28;20063;-84
2023/03/05 18:37:00;;;;;;;11.35;7.82;;;;;;;;;;5052752;28;20049;-83
2023/03/05 18:39:28;;;;;;;16.55;8.35;;;;;;;;;;5046985;28;20056;-83
2023/03/05 18:41:55;;;;;;;15.43;8.55;;;;;;;;;;5039029;28;20057;-83
2023/03/05 18:44:23;;;;;;;11.15;7.28;;;;;;;;;;5025511;28;20050;-83
2023/03/05 18:46:51;;;;;;;8.50;6.90;;;;;;;;;;5044482;28;20063;-83
2023/03/05 18:49:18;;;;;;;10.27;6.82;;;;;;;;;;5051090;28;20040;-83
2023/03/05 18:51:49;;;;;;;18.60;12.60;;;;;;;;;;5042068;28;20390;-83
2023/03/05 18:54:19;;;;;;;13.68;9.07;;;;;;;;;;5009324;28;20056;-82
2023/03/05 18:56:50;;;;;;;8.98;7.63;;;;;;;;;;5202546;23;20052;-86
2023/03/05 18:59:20;;;;;;;14.70;8.90;;;;;;;;;;5058198;28;20048;-88
2023/03/05 19:01:47;;;;;;;13.32;8.20;;;;;;;;;;5040422;28;20044;-86
2023/03/05 19:04:16;;;;;;;9.98;7.63;;;;;;;;;;5018551;28;20053;-87
2023/03/05 19:06:46;;;;;;;10.20;8.15;;;;;;;;;;5024314;28;20049;-87
2023/03/05 19:09:37;;;;;;;9.40;8.38;;;;;;;;;;5023209;28;20056;-88
2023/03/05 19:12:08;;;;;;;10.07;7.55;;;;;;;;;;5024273;28;20430;-86
2023/03/05 19:14:43;;;;;;;9.20;8.13;;;;;;;;;;5023729;28;20045;-87
2023/03/05 19:17:14;;;;;;;12.88;8.55;;;;;;;;;;5034824;28;20049;-86
2023/03/05 19:19:52;;;;;;;11.00;9.82;;;;;;;;;;5007707;28;20080;-87
2023/03/05 19:22:24;;;;;;;10.85;8.40;;;;;;;;;;5010164;28;20063;-86
2023/03/05 19:24:51;;;;;;;8.45;7.65;;;;;;;;;;5016975;28;20048;-87
2023/03/05 19:27:21;;;;;;;8.93;7.50;;;;;;;;;;5005440;28;20061;-88
2023/03/05 19:29:48;;;;;;;9.85;7.60;;;;;;;;;;5022938;28;20049;-87
2023/03/05 19:32:20;;;;;;;11.23;8.63;;;;;;;;;;5021654;28;20449;-88
2023/03/05 19:34:48;;;;;;;10.68;7.72;;;;;;;;;;5025316;28;20045;-85
2023/03/05 19:37:18;;;;;;;12.90;9.27;;;;;;;;;;5022693;28;20048;-87
2023/03/05 19:39:46;;;;;;;15.15;8.30;;;;;;;;;;5006739;28;20088;-87
2023/03/05 19:42:14;;;;;;;11.00;9.27;;;;;;;;;;5024891;28;20454;-86
2023/03/05 19:44:44;;;;;;;9.15;6.75;;;;;;;;;;5008123;28;20060;-86
2023/03/05 19:47:14;;;;;;;9.40;7.47;;;;;;;;;;5010608;28;20053;-87
2023/03/05 19:49:42;;;;;;;16.02;8.85;;;;;;;;;;5021905;28;20641;-87
2023/03/05 19:52:10;;;;;;;11.27;7.97;;;;;;;;;;5006806;28;20060;-88
2023/03/05 19:54:39;;;;;;;10.13;7.85;;;;;;;;;;5005432;28;20057;-88
2023/03/05 19:57:08;;;;;;;11.13;8.73;;;;;;;;;;5022247;28;20061;-88
2023/03/05 19:59:45;;;;;;;12.98;9.45;;;;;;;;;;5006525;28;20095;-87
2023/03/05 20:02:17;;;;;;;13.93;11.32;;;;;;;;;;5005235;28;20139;-90
2023/03/05 20:04:51;;;;;;;19.42;10.52;;;;;;;;;;5021414;28;20603;-86
2023/03/05 20:07:18;;;;;;;12.65;9.90;;;;;;;;;;5007173;28;20433;-86
2023/03/05 20:09:49;;;;;;;14.45;10.13;;;;;;;;;;5023803;28;20051;-87
2023/03/05 20:12:17;;;;;;;13.18;11.75;;;;;;;;;;5004868;28;20057;-86
2023/03/05 20:14:44;;;;;;;13.57;9.55;;;;;;;;;;5008180;28;20406;-86
2023/03/05 20:17:12;;;;;;;17.58;11.05;;;;;;;;;;5006699;28;20053;-87
2023/03/05 20:19:39;;;;;;;18.63;12.25;;;;;;;;;;5024352;28;20053;-87
2023/03/05 20:22:10;;;;;;;14.38;10.20;;;;;;;;;;5036597;28;20511;-86
2023/03/05 20:24:37;;;;;;;14.30;11.82;;;;;;;;;;5005882;28;20067;-89
2023/03/05 20:27:06;;;;;;;19.85;12.48;;;;;;;;;;5010001;28;20038;-87
2023/03/05 20:29:36;;;;;;;13.45;11.45;;;;;;;;;;5004912;28;20053;-86
2023/03/05 20:32:04;;;;;;;18.75;12.85;;;;;;;;;;5038867;28;20510;-87